Flight Track Log - Related Links

Times and Time Zones

All times are in EDT time to prevent confusion due to time zone crossing. See the CFS820 flight status page for this flight to view local times or setup timezone preferences in your user account.


Time Position Orientation Groundspeed Altitude Reporting Facility
EDT Latitude Longitude Course Direction KTS MPH feet Rate Location/Type
Fri 09:03:24 AM 47.4733 -111.3761 227° Southwest 114 131 4,500  Level Salt Lake Center
Fri 09:04:25 AM 47.4486 -111.4147 227° Southwest 147 169 5,400 1,180 Climbing Salt Lake Center
Fri 09:05:26 AM 47.4383 -111.4775 256° West 153 176 6,900 1,475 Climbing Salt Lake Center
Fri 09:06:27 AM 47.4261 -111.5408 254° West 158 182 8,400 1,488 Climbing Salt Lake Center
Fri 09:07:27 AM 47.4125 -111.6086 253° West 164 189 9,900 1,388 Climbing Salt Lake Center
Fri 09:08:28 AM 47.3992 -111.6739 253° West 167 192 11,200 1,377 Climbing Salt Lake Center
Fri 09:09:29 AM 47.3858 -111.7419 254° West 169 194 12,700 1,388 Climbing Salt Lake Center
Fri 09:10:29 AM 47.3722 -111.8103 254° West 171 197 14,000 1,190 Climbing Salt Lake Center
Fri 09:11:30 AM 47.3578 -111.8850 254° West 179 206 15,100 934 Climbing Salt Lake Center
Fri 09:12:31 AM 47.3431 -111.9614 254° West 186 214 15,900 393 Climbing Salt Lake Center
Fri 09:13:32 AM 47.3283 -112.0428 255° West 195 224 15,900 49 Level Salt Lake Center
Fri 09:14:33 AM 47.3119 -112.1319 255° West 210 242 16,000  Climbing Salt Lake Center
Fri 09:15:33 AM 47.2931 -112.2222 253° West 221 254 15,900 -50 Descending Salt Lake Center
Fri 09:16:34 AM 47.2733 -112.3150 253° West 233 268 15,900  Level Salt Lake Center
Fri 09:17:35 AM 47.2522 -112.4222 254° West 230 265 15,900 33 Level Salt Lake Center
Fri 09:19:00 AM 47.2196 -112.5437 248° West  Level FlightAware Approximate
Fri 09:19:37 AM 47.2153 -112.6067 248° West 235 270 16,000  Level Salt Lake Center
Fri 09:20:38 AM 47.1972 -112.6992 254° West 236 272 16,000 49 Level Salt Lake Center
Fri 09:21:39 AM 47.1800 -112.7903 254° West 234 269 16,100  Climbing Salt Lake Center
Fri 09:22:39 AM 47.1617 -112.8792 253° West 232 267 16,000 -99 Descending Salt Lake Center
Fri 09:23:40 AM 47.1442 -112.9683 254° West 228 262 15,900 -295 Descending Salt Lake Center
Fri 09:24:41 AM 47.1236 -113.0631 252° West 235 270 15,400 -443 Descending Salt Lake Center
Fri 09:25:42 AM 47.1036 -113.1572 253° West 241 277 15,000 -197 Descending Salt Lake Center
Fri 09:26:43 AM 47.0839 -113.2494 253° West 237 273 15,000  Level Salt Lake Center
Fri 09:27:44 AM 47.0664 -113.3367 254° West 226 260 15,000 -98 Level Salt Lake Center
Fri 09:28:45 AM 47.0481 -113.4233 253° West 222 255 14,800 -738 Descending Salt Lake Center
Fri 09:29:46 AM 47.0117 -113.4922 232° Southwest 229 264 13,500 -1,279 Descending Salt Lake Center
Fri 09:30:47 AM 46.9608 -113.5486 217° Southwest 230 265 12,200 -1,475 Descending Salt Lake Center
Fri 09:31:48 AM 46.9161 -113.6133 225° Southwest 198 228 10,500 -1,377 Descending Salt Lake Center
Fri 09:32:49 AM 46.8975 -113.6919 251° West 190 219 9,400 -1,033 Descending Salt Lake Center
Fri 09:33:50 AM 46.8886 -113.7703 261° West 194 223 8,400 -984 Descending Salt Lake Center
Fri 09:34:51 AM 46.8833 -113.8386 264° West 175 201 7,400 -1,190 Descending Salt Lake Center
Fri 09:35:51 AM 46.8772 -113.9067 263° West 171 197 6,000 -942 Descending Salt Lake Center
Fri 09:36:52 AM 46.8628 -113.9661 250° West 160 184 5,500 -738 Descending Salt Lake Center
Fri 09:37:53 AM 46.8692 -114.0114 282° West 119 137 4,500 -836 Descending Salt Lake Center
Fri 09:38:54 AM 46.8925 -114.0517 310° West 119 137 3,800 -639 Descending Salt Lake Center
Fri 09:39:55 AM 46.9108 -114.0833 310° West 120 138 3,200 -590 Descending Salt Lake Center

Login

Don't have an account? Register now (free) for customized features, flight alerts, and more!